createdAt,value
2019-03-25T00:00:33.802Z,97850.59
2019-03-25T00:02:35.398Z,97847.28
2019-03-25T00:04:37.048Z,97845.20
2019-03-25T00:06:38.647Z,97849.13
2019-03-25T00:08:40.246Z,97850.79
2019-03-25T00:10:41.883Z,97846.14
2019-03-25T00:12:43.468Z,97837.63
2019-03-25T00:14:45.076Z,97845.80
2019-03-25T00:16:46.688Z,97838.55
2019-03-25T00:18:48.286Z,97837.78
2019-03-25T00:20:49.928Z,97842.04
2019-03-25T00:22:51.520Z,97841.70
2019-03-25T00:24:53.101Z,97839.59
2019-03-25T00:26:54.670Z,97838.81
2019-03-25T00:28:56.286Z,97837.13
2019-03-25T00:30:57.927Z,97830.78
2019-03-25T00:32:59.515Z,97829.92
2019-03-25T00:35:01.085Z,97835.83
2019-03-25T00:37:02.701Z,97827.78
2019-03-25T00:39:04.312Z,97832.44
2019-03-25T00:41:05.924Z,97831.64
2019-03-25T00:43:07.520Z,97826.09
2019-03-25T00:45:09.138Z,97825.69
2019-03-25T00:47:10.748Z,97826.20
2019-03-25T00:49:12.352Z,97825.41
2019-03-25T00:51:13.975Z,97825.41
2019-03-25T00:53:15.588Z,97821.04
2019-03-25T00:55:17.176Z,97819.34
2019-03-25T00:57:18.759Z,97810.84
2019-03-25T00:59:20.359Z,97814.74
2019-03-25T01:01:21.987Z,97810.94
2019-03-25T01:03:23.590Z,97809.30
2019-03-25T01:05:25.199Z,97800.69
2019-03-25T01:07:26.784Z,97796.87
2019-03-25T01:09:28.368Z,97795.21
2019-03-25T01:11:29.996Z,97792.98
2019-03-25T01:13:31.603Z,97789.53
2019-03-25T01:15:33.198Z,97783.95
2019-03-25T01:17:34.857Z,97775.50
2019-03-25T01:19:36.444Z,97779.79
2019-03-25T01:21:38.025Z,97769.13
2019-03-25T01:23:39.646Z,97772.44
2019-03-25T01:25:41.252Z,97768.13
2019-03-25T01:27:42.859Z,97765.91
2019-03-25T01:29:44.473Z,97765.91
2019-03-25T01:31:46.096Z,97767.59
2019-03-25T01:33:47.744Z,97768.45
2019-03-25T01:35:49.341Z,97778.24
2019-03-25T01:37:50.979Z,97766.25
2019-03-25T01:39:52.594Z,97764.97
2019-03-25T01:41:54.188Z,97764.53
2019-03-25T01:43:55.832Z,97760.26
2019-03-25T01:45:57.452Z,97755.13
2019-03-25T01:47:59.182Z,97754.14
2019-03-25T01:50:00.793Z,97744.25
2019-03-25T01:52:02.405Z,97749.42
2019-03-25T01:54:04.017Z,97750.38
2019-03-25T01:56:05.623Z,97747.81
2019-03-25T01:58:07.208Z,97740.98
2019-03-25T02:00:08.792Z,97734.59
2019-03-25T02:02:10.392Z,97735.44
2019-03-25T02:04:11.962Z,97742.34
2019-03-25T02:06:13.574Z,97737.27
2019-03-25T02:08:15.160Z,97721.81
2019-03-25T02:10:16.768Z,97735.95
2019-03-25T02:12:18.363Z,97735.09
2019-03-25T02:14:19.952Z,97728.80
2019-03-25T02:16:21.548Z,97739.11
2019-03-25T02:18:23.132Z,97727.20
2019-03-25T02:20:26.606Z,97736.66
2019-03-25T02:22:26.487Z,97729.97
2019-03-25T02:24:28.116Z,97726.57
2019-03-25T02:26:29.722Z,97721.06
2019-03-25T02:28:31.331Z,97710.03
2019-03-25T02:30:32.939Z,97707.12
2019-03-25T02:32:34.538Z,97697.32
2019-03-25T02:34:36.183Z,97692.75
2019-03-25T02:36:37.801Z,97697.76
2019-03-25T02:38:39.402Z,97690.34
2019-03-25T02:40:41.039Z,97696.39
2019-03-25T02:42:42.631Z,97687.52
2019-03-25T02:44:44.243Z,97686.23
2019-03-25T02:46:45.856Z,97679.52
2019-03-25T02:48:47.477Z,97677.31
2019-03-25T02:50:49.061Z,97671.66
2019-03-25T02:52:50.717Z,97669.11
2019-03-25T02:54:52.333Z,97670.28
2019-03-25T02:56:53.920Z,97670.15
2019-03-25T02:58:55.560Z,97661.50
2019-03-25T03:00:57.168Z,97660.14
2019-03-25T03:02:58.788Z,97651.07
2019-03-25T03:05:00.410Z,97648.83
2019-03-25T03:07:01.985Z,97644.52
2019-03-25T03:09:03.604Z,97646.55
2019-03-25T03:11:05.243Z,97644.31
2019-03-25T03:13:06.828Z,97642.09
2019-03-25T03:15:08.411Z,97636.14
2019-03-25T03:17:10.057Z,97638.27
2019-03-25T03:19:11.648Z,97633.22
2019-03-25T03:21:13.252Z,97618.28
2019-03-25T03:23:14.847Z,97617.02
2019-03-25T03:25:16.426Z,97617.86
2019-03-25T03:27:18.014Z,97620.79
2019-03-25T03:29:19.624Z,97615.15
2019-03-25T03:31:21.233Z,97606.16
2019-03-25T03:33:22.899Z,97607.81
2019-03-25T03:35:24.489Z,97597.72
2019-03-25T03:37:26.126Z,97595.50
2019-03-25T03:39:27.707Z,97591.74
2019-03-25T03:41:29.303Z,97589.28
2019-03-25T03:43:30.921Z,97588.45
2019-03-25T03:45:32.587Z,97588.46
2019-03-25T03:47:34.197Z,97591.44
2019-03-25T03:49:35.808Z,97589.32
2019-03-25T03:51:37.400Z,97586.33
2019-03-25T03:53:39.020Z,97585.06
2019-03-25T03:55:40.613Z,97580.84
2019-03-25T03:57:42.233Z,97581.71
2019-03-25T03:59:43.845Z,97584.70
2019-03-25T04:01:45.460Z,97573.17
2019-03-25T04:03:47.108Z,97574.47
2019-03-25T04:05:48.696Z,97582.98
2019-03-25T04:07:50.278Z,97535.32
2019-03-25T04:09:51.888Z,97575.77
2019-03-25T04:11:53.480Z,97576.61
2019-03-25T04:13:55.083Z,97576.19
2019-03-25T04:15:56.691Z,97575.33
2019-03-25T04:17:58.279Z,97576.84
2019-03-25T04:19:59.889Z,97572.97
2019-03-25T04:22:01.480Z,97574.20
2019-03-25T04:24:03.083Z,97575.48
2019-03-25T04:26:04.706Z,97578.47
2019-03-25T04:28:06.286Z,97574.27
2019-03-25T04:30:07.915Z,97569.98
2019-03-25T04:32:09.520Z,97568.22
2019-03-25T04:34:11.108Z,97569.06
2019-03-25T04:36:12.751Z,97572.04
2019-03-25T04:38:14.339Z,97568.13
2019-03-25T04:40:15.943Z,97557.09
2019-03-25T04:42:17.523Z,97561.30
2019-03-25T04:44:19.095Z,97550.50
2019-03-25T04:46:20.704Z,97551.36
2019-03-25T04:48:22.292Z,97544.95
2019-03-25T04:50:23.964Z,97539.75
2019-03-25T04:52:25.562Z,97540.20
2019-03-25T04:54:27.179Z,97537.56
2019-03-25T04:56:39.137Z,97536.23
2019-03-25T04:58:30.487Z,97528.58
2019-03-25T05:00:32.101Z,97529.86
2019-03-25T05:02:33.682Z,97524.23
2019-03-25T05:04:35.277Z,97525.23
2019-03-25T05:06:36.901Z,97529.51
2019-03-25T05:08:38.515Z,97523.28
2019-03-25T05:10:40.129Z,97526.39
2019-03-25T05:12:41.736Z,97521.39
2019-03-25T05:14:43.322Z,97523.28
2019-03-25T05:16:44.944Z,97514.50
2019-03-25T05:18:46.522Z,97514.71
2019-03-25T05:20:48.114Z,97514.50
2019-03-25T05:22:49.709Z,97509.12
2019-03-25T05:24:51.286Z,97505.31
2019-03-25T05:26:52.867Z,97498.88
2019-03-25T05:28:54.476Z,97494.12
2019-03-25T05:30:56.048Z,97450.13
2019-03-25T05:32:57.662Z,97489.12
2019-03-25T05:34:59.248Z,97487.74
2019-03-25T05:37:00.833Z,97484.13
2019-03-25T05:39:02.452Z,97479.75
2019-03-25T05:41:04.059Z,97475.39
2019-03-25T05:43:05.699Z,97473.62
2019-03-25T05:45:07.284Z,97469.34
2019-03-25T05:47:08.887Z,97465.38
2019-03-25T05:49:10.527Z,97471.34
2019-03-25T05:51:12.140Z,97453.00
2019-03-25T05:53:13.752Z,97447.95
2019-03-25T05:55:15.350Z,97445.75
2019-03-25T05:57:16.960Z,97445.02
2019-03-25T05:59:18.544Z,97438.80
2019-03-25T06:01:20.132Z,97437.07
2019-03-25T06:03:21.716Z,97434.02
2019-03-25T06:05:23.319Z,97431.37
2019-03-25T06:07:24.940Z,97427.51
2019-03-25T06:09:26.553Z,97427.51
2019-03-25T06:11:28.154Z,97427.09
2019-03-25T06:13:29.767Z,97430.80
2019-03-25T06:15:31.371Z,97435.09
2019-03-25T06:17:32.965Z,97436.38
2019-03-25T06:19:34.542Z,97452.18
2019-03-25T06:21:36.145Z,97427.86
2019-03-25T06:23:37.743Z,97431.34
2019-03-25T06:25:39.339Z,97428.05
2019-03-25T06:27:40.924Z,97423.44
2019-03-25T06:29:42.527Z,97421.28
2019-03-25T06:31:44.140Z,97428.66
2019-03-25T06:33:45.764Z,97429.68
2019-03-25T06:35:47.363Z,97429.02
2019-03-25T06:37:49.008Z,97433.34
2019-03-25T06:39:50.600Z,97426.59
2019-03-25T06:41:52.179Z,97425.31
2019-03-25T06:43:53.828Z,97421.55
2019-03-25T06:45:55.502Z,97419.77
2019-03-25T06:47:57.137Z,97418.07
2019-03-25T06:49:58.748Z,97417.72
2019-03-25T06:52:00.347Z,97412.61
2019-03-25T06:54:01.948Z,97408.25
2019-03-25T06:56:03.658Z,97405.19
2019-03-25T06:58:05.245Z,97396.94
2019-03-25T07:00:06.825Z,97398.54
2019-03-25T07:02:08.437Z,97395.84
2019-03-25T07:04:10.046Z,97393.33
2019-03-25T07:06:11.651Z,97388.70
2019-03-25T07:08:13.250Z,97384.88
2019-03-25T07:10:14.846Z,97383.22
2019-03-25T07:12:16.446Z,97377.84
2019-03-25T07:14:18.052Z,97388.91
2019-03-25T07:16:19.693Z,97383.22
2019-03-25T07:18:21.300Z,97386.00
2019-03-25T07:20:22.946Z,97378.62
2019-03-25T07:22:24.558Z,97367.02
2019-03-25T07:24:26.168Z,97369.60
2019-03-25T07:26:27.788Z,97365.89
2019-03-25T07:28:29.391Z,97364.87
2019-03-25T07:30:30.970Z,97368.81
2019-03-25T07:32:32.563Z,97380.31
2019-03-25T07:34:34.148Z,97387.94
2019-03-25T07:36:35.778Z,97365.73
2019-03-25T07:38:37.368Z,97365.73
2019-03-25T07:40:38.952Z,97369.58
2019-03-25T07:42:42.796Z,97386.66
2019-03-25T07:44:42.180Z,97393.90
2019-03-25T07:46:43.820Z,97398.58
2019-03-25T07:48:45.406Z,97404.56
2019-03-25T07:50:46.994Z,97395.63
2019-03-25T07:52:48.575Z,97396.37
2019-03-25T07:54:50.188Z,97399.73
2019-03-25T07:56:51.817Z,97394.11
2019-03-25T07:58:53.442Z,97384.41
2019-03-25T08:00:55.057Z,97388.86
2019-03-25T08:02:56.740Z,97392.18
2019-03-25T08:04:58.328Z,97389.97
2019-03-25T08:06:59.959Z,97388.83
2019-03-25T08:09:03.979Z,97385.91
2019-03-25T08:11:03.319Z,97386.05
2019-03-25T08:13:05.012Z,97378.08
2019-03-25T08:15:06.599Z,97381.56
2019-03-25T08:17:08.209Z,97383.02
2019-03-25T08:19:09.823Z,97373.19
2019-03-25T08:21:11.433Z,97374.66
2019-03-25T08:23:13.080Z,97368.80
2019-03-25T08:25:14.674Z,97371.52
2019-03-25T08:27:16.287Z,97364.83
2019-03-25T08:29:17.880Z,97367.97
2019-03-25T08:31:19.505Z,97371.98
2019-03-25T08:33:21.088Z,97373.78
2019-03-25T08:35:22.696Z,97372.08
2019-03-25T08:37:24.328Z,97369.86
2019-03-25T08:39:25.927Z,97375.41
2019-03-25T08:41:27.588Z,97376.76
2019-03-25T08:43:29.781Z,97374.38
2019-03-25T08:45:31.371Z,97374.25
2019-03-25T08:47:32.964Z,97375.41
2019-03-25T08:49:34.548Z,97376.96
2019-03-25T08:51:36.156Z,97364.88
2019-03-25T08:53:37.781Z,97382.45
2019-03-25T08:55:39.383Z,97383.27
2019-03-25T08:57:40.995Z,97372.84
2019-03-25T08:59:42.608Z,97390.91
2019-03-25T09:01:44.202Z,97392.73
2019-03-25T09:03:45.895Z,97393.73
2019-03-25T09:05:47.493Z,97394.87
2019-03-25T09:07:49.080Z,97400.66
2019-03-25T09:09:50.723Z,97349.55
2019-03-25T09:11:52.316Z,97400.02
2019-03-25T09:13:53.928Z,97400.36
2019-03-25T09:15:55.517Z,97401.62
2019-03-25T09:17:57.157Z,97382.28
2019-03-25T09:19:58.748Z,97396.81
2019-03-25T09:22:00.351Z,97403.20
2019-03-25T09:24:02.000Z,97397.27
2019-03-25T09:26:03.592Z,97397.27
2019-03-25T09:28:05.235Z,97397.44
2019-03-25T09:30:06.839Z,97400.10
2019-03-25T09:32:08.498Z,97405.44
2019-03-25T09:34:10.107Z,97412.39
2019-03-25T09:36:11.682Z,97428.34
2019-03-25T09:38:13.290Z,97426.39
2019-03-25T09:40:14.904Z,97426.59
2019-03-25T09:42:16.492Z,97424.23
2019-03-25T09:44:18.134Z,97430.38
2019-03-25T09:46:19.739Z,97438.61
2019-03-25T09:48:21.328Z,97439.20
2019-03-25T09:50:22.926Z,97438.88
2019-03-25T09:52:24.538Z,97443.29
2019-03-25T09:54:26.187Z,97444.31
2019-03-25T09:56:27.774Z,97443.16
2019-03-25T09:58:36.335Z,97446.64
2019-03-25T10:00:31.099Z,97445.31
2019-03-25T10:02:32.695Z,97438.13
2019-03-25T10:04:34.347Z,97446.34
2019-03-25T10:06:35.933Z,97447.30
2019-03-25T10:08:37.516Z,97447.28
2019-03-25T10:10:39.123Z,97449.83
2019-03-25T10:12:40.712Z,97442.08
2019-03-25T10:14:42.306Z,97446.67
2019-03-25T10:16:43.911Z,97436.64
2019-03-25T10:18:45.536Z,97443.05
2019-03-25T10:20:47.111Z,97443.21
2019-03-25T10:22:49.289Z,97445.53
2019-03-25T10:24:50.935Z,97439.69
2019-03-25T10:26:52.532Z,97446.02
2019-03-25T10:28:54.169Z,97439.42
2019-03-25T10:30:55.820Z,97441.86
2019-03-25T10:32:57.494Z,97446.89
2019-03-25T10:34:59.136Z,97438.63
2019-03-25T10:37:00.776Z,97441.94
2019-03-25T10:39:02.500Z,97415.44
2019-03-25T10:41:04.143Z,97442.45
2019-03-25T10:43:05.738Z,97430.10
2019-03-25T10:45:07.312Z,97434.14
2019-03-25T10:47:08.914Z,97427.02
2019-03-25T10:49:10.496Z,97437.94
2019-03-25T10:51:12.105Z,97428.35
2019-03-25T10:53:13.711Z,97425.45
2019-03-25T10:55:15.321Z,97420.27
2019-03-25T10:57:16.988Z,97423.55
2019-03-25T10:59:18.599Z,97428.97
2019-03-25T11:01:20.809Z,97421.95
2019-03-25T11:03:22.413Z,97425.69
2019-03-25T11:05:24.005Z,97422.30
2019-03-25T11:07:25.708Z,97430.24
2019-03-25T11:09:27.280Z,97428.44
2019-03-25T11:11:28.940Z,97429.42
2019-03-25T11:13:30.553Z,97434.32
2019-03-25T11:15:32.139Z,97429.59
2019-03-25T11:17:33.728Z,97427.58
2019-03-25T11:19:35.322Z,97431.05
2019-03-25T11:21:36.968Z,97417.83
2019-03-25T11:23:38.579Z,97410.47
2019-03-25T11:25:40.199Z,97421.12
2019-03-25T11:27:41.803Z,97426.64
2019-03-25T11:29:43.411Z,97420.98
2019-03-25T11:31:45.072Z,97428.69
2019-03-25T11:33:46.668Z,97427.95
2019-03-25T11:35:48.256Z,97431.14
2019-03-25T11:37:49.868Z,97425.67
2019-03-25T11:39:51.466Z,97428.90
2019-03-25T11:41:53.127Z,97421.26
2019-03-25T11:43:54.720Z,97429.63
2019-03-25T11:45:56.328Z,97430.59
2019-03-25T11:47:57.925Z,97433.61
2019-03-25T11:49:59.534Z,97429.57
2019-03-25T11:52:01.196Z,97434.07
2019-03-25T11:54:02.783Z,97436.39
2019-03-25T11:56:04.379Z,97439.94
2019-03-25T11:58:05.980Z,97439.80
2019-03-25T12:00:07.585Z,97446.09
2019-03-25T12:02:17.245Z,97441.66
2019-03-25T12:04:11.159Z,97441.62
2019-03-25T12:06:12.810Z,97444.25
2019-03-25T12:08:15.124Z,97458.16
2019-03-25T12:10:16.737Z,97435.89
2019-03-25T12:12:19.752Z,97445.84
2019-03-25T12:14:21.368Z,97439.16
2019-03-25T12:16:22.947Z,97438.83
2019-03-25T12:18:24.610Z,97442.37
2019-03-25T12:20:26.335Z,97442.14
2019-03-25T12:22:27.944Z,97430.40
2019-03-25T12:24:29.568Z,97441.20
2019-03-25T12:26:31.179Z,97408.58
2019-03-25T12:28:32.833Z,97426.39
2019-03-25T12:30:34.432Z,97437.34
2019-03-25T12:32:36.052Z,97443.03
2019-03-25T12:34:37.739Z,97444.14
2019-03-25T12:36:39.359Z,97452.09
2019-03-25T12:38:40.965Z,97482.67
2019-03-25T12:40:42.564Z,97508.48
2019-03-25T12:42:44.191Z,97505.34
2019-03-25T12:44:45.791Z,97514.92
2019-03-25T12:46:47.375Z,97511.34
2019-03-25T12:48:49.017Z,97494.88
2019-03-25T12:50:50.604Z,97471.27
2019-03-25T12:52:52.178Z,97457.38
2019-03-25T12:54:53.806Z,97458.38
2019-03-25T12:56:55.470Z,97462.30
2019-03-25T12:58:57.251Z,97458.96
2019-03-25T13:00:59.700Z,97455.55
2019-03-25T13:03:01.278Z,97461.92
2019-03-25T13:05:02.915Z,97453.87
2019-03-25T13:07:04.537Z,97462.96
2019-03-25T13:09:06.269Z,97456.97
2019-03-25T13:11:07.948Z,97458.20
2019-03-25T13:13:09.555Z,97461.02
2019-03-25T13:15:11.163Z,97464.01
2019-03-25T13:17:12.767Z,97463.32
2019-03-25T13:19:14.416Z,97464.48
2019-03-25T13:21:16.025Z,97461.66
2019-03-25T13:23:17.611Z,97459.16
2019-03-25T13:25:19.525Z,97460.98
2019-03-25T13:27:21.128Z,97456.87
2019-03-25T13:29:22.747Z,97457.64
2019-03-25T13:31:24.348Z,97457.31
2019-03-25T13:33:25.966Z,97464.67
2019-03-25T13:35:27.553Z,97452.38
2019-03-25T13:37:29.136Z,97459.23
2019-03-25T13:39:30.759Z,97454.00
2019-03-25T13:41:32.485Z,97456.84
2019-03-25T13:43:34.057Z,97458.04
2019-03-25T13:45:35.684Z,97456.84
2019-03-25T13:47:37.412Z,97458.32
2019-03-25T13:49:39.132Z,97470.08
2019-03-25T13:51:40.797Z,97466.33
2019-03-25T13:53:43.171Z,97464.09
2019-03-25T13:55:44.774Z,97430.39
2019-03-25T13:57:46.403Z,97473.08
2019-03-25T13:59:47.992Z,97452.80
2019-03-25T14:01:49.630Z,97465.17
2019-03-25T14:03:51.240Z,97478.13
2019-03-25T14:05:52.892Z,97473.73
2019-03-25T14:07:54.481Z,97484.17
2019-03-25T14:09:56.100Z,97487.64
2019-03-25T14:11:57.744Z,97483.67
2019-03-25T14:14:00.341Z,97481.67
2019-03-25T14:16:01.064Z,97481.57
2019-03-25T14:18:02.656Z,97476.38
2019-03-25T14:20:04.544Z,97480.29
2019-03-25T14:22:06.199Z,97476.10
2019-03-25T14:24:07.808Z,97472.97
2019-03-25T14:26:09.419Z,97470.83
2019-03-25T14:28:11.062Z,97471.59
2019-03-25T14:30:14.870Z,97476.84
2019-03-25T14:32:14.501Z,97479.24
2019-03-25T14:34:16.097Z,97453.98
2019-03-25T14:36:17.836Z,97495.69
2019-03-25T14:38:19.424Z,97487.39
2019-03-25T14:40:21.067Z,97497.41
2019-03-25T14:42:22.676Z,97492.84
2019-03-25T14:44:24.466Z,97499.32
2019-03-25T14:46:26.082Z,97503.11
2019-03-25T14:48:27.803Z,97505.27
2019-03-25T14:50:29.412Z,97508.39
2019-03-25T14:52:31.019Z,97513.12
2019-03-25T14:54:32.608Z,97516.05
2019-03-25T14:56:34.219Z,97524.92
2019-03-25T14:58:35.935Z,97536.84
2019-03-25T15:00:38.019Z,97544.45
2019-03-25T15:02:39.903Z,97556.73
2019-03-25T15:04:41.567Z,97550.61
2019-03-25T15:06:43.211Z,97540.20
2019-03-25T15:08:44.800Z,97551.94
2019-03-25T15:10:53.513Z,97563.66
2019-03-25T15:12:48.224Z,97558.59
2019-03-25T15:14:49.836Z,97565.58
2019-03-25T15:16:51.779Z,97568.73
2019-03-25T15:18:53.350Z,97572.80
2019-03-25T15:20:54.923Z,97578.23
2019-03-25T15:22:56.508Z,97566.12
2019-03-25T15:24:58.116Z,97576.32
2019-03-25T15:26:59.736Z,97570.30
2019-03-25T15:29:01.361Z,97568.75
2019-03-25T15:31:03.056Z,97571.22
2019-03-25T15:33:04.732Z,97582.44
2019-03-25T15:35:06.324Z,97582.59
2019-03-25T15:37:07.960Z,97590.06
2019-03-25T15:39:09.564Z,97587.19
2019-03-25T15:41:11.152Z,97590.25
2019-03-25T15:43:12.728Z,97591.36
2019-03-25T15:45:14.326Z,97598.70
2019-03-25T15:47:15.968Z,97601.89
2019-03-25T15:49:17.627Z,97608.11
2019-03-25T15:51:19.220Z,97609.93
2019-03-25T15:53:20.827Z,97613.53
2019-03-25T15:55:22.476Z,97613.27
2019-03-25T15:57:24.094Z,97615.16
2019-03-25T15:59:25.701Z,97614.89
2019-03-25T16:01:27.295Z,97614.17
2019-03-25T16:03:28.883Z,97618.98
2019-03-25T16:05:30.599Z,97611.89
2019-03-25T16:07:32.302Z,97590.68
2019-03-25T16:09:34.112Z,97613.80
2019-03-25T16:11:35.823Z,97632.16
2019-03-25T16:13:37.453Z,97614.72
2019-03-25T16:15:39.091Z,97582.92
2019-03-25T16:17:43.099Z,97603.70
2019-03-25T16:19:42.344Z,97606.53
2019-03-25T16:21:43.932Z,97610.70
2019-03-25T16:23:45.502Z,97605.06
2019-03-25T16:25:47.096Z,97615.11
2019-03-25T16:27:48.696Z,97620.94
2019-03-25T16:29:50.303Z,97623.94
2019-03-25T16:31:51.901Z,97628.72
2019-03-25T16:33:53.521Z,97628.53
2019-03-25T16:35:55.115Z,97627.25
2019-03-25T16:37:56.720Z,97642.08
2019-03-25T16:39:58.372Z,97644.57
2019-03-25T16:41:59.965Z,97640.27
2019-03-25T16:44:01.581Z,97643.61
2019-03-25T16:46:03.235Z,97652.90
2019-03-25T16:48:04.827Z,97648.20
2019-03-25T16:50:06.494Z,97646.39
2019-03-25T16:52:08.088Z,97651.09
2019-03-25T16:54:09.723Z,97654.42
2019-03-25T16:56:11.949Z,97657.26
2019-03-25T16:58:13.539Z,97656.87
2019-03-25T17:00:26.614Z,97659.94
2019-03-25T17:02:16.986Z,97662.15
2019-03-25T17:04:18.591Z,97668.74
2019-03-25T17:06:20.180Z,97671.92
2019-03-25T17:08:21.778Z,97681.28
2019-03-25T17:10:23.404Z,97685.05
2019-03-25T17:12:25.020Z,97692.09
2019-03-25T17:14:26.636Z,97694.20
2019-03-25T17:16:28.248Z,97698.89
2019-03-25T17:18:29.946Z,97705.22
2019-03-25T17:20:31.562Z,97710.27
2019-03-25T17:22:33.164Z,97713.45
2019-03-25T17:24:34.775Z,97709.39
2019-03-25T17:26:42.314Z,97713.22
2019-03-25T17:28:38.061Z,97709.39
2019-03-25T17:30:39.716Z,97712.27
2019-03-25T17:32:41.303Z,97718.03
2019-03-25T17:34:42.889Z,97723.05
2019-03-25T17:36:44.494Z,97724.88
2019-03-25T17:38:46.066Z,97731.64
2019-03-25T17:40:47.683Z,97731.84
2019-03-25T17:42:49.276Z,97741.31
2019-03-25T17:44:50.880Z,97749.55
2019-03-25T17:46:52.458Z,97758.89
2019-03-25T17:48:54.044Z,97760.12
2019-03-25T17:50:55.803Z,97800.95
2019-03-25T17:52:57.392Z,97761.67
2019-03-25T17:54:59.020Z,97782.05
2019-03-25T17:57:00.636Z,97785.94
2019-03-25T17:59:02.283Z,97784.02
2019-03-25T18:01:03.894Z,97790.56
2019-03-25T18:03:10.940Z,97792.89
2019-03-25T18:05:07.414Z,97799.76
2019-03-25T18:07:09.120Z,97799.05
2019-03-25T18:09:10.759Z,97796.23
2019-03-25T18:11:12.412Z,97807.18
2019-03-25T18:13:22.028Z,97805.90
2019-03-25T18:15:15.659Z,97808.80
2019-03-25T18:17:17.275Z,97818.19
2019-03-25T18:19:18.864Z,97818.62
2019-03-25T18:21:20.546Z,97824.70
2019-03-25T18:23:22.141Z,97825.88
2019-03-25T18:25:23.746Z,97829.14
2019-03-25T18:27:25.351Z,97834.62
2019-03-25T18:29:26.941Z,97841.23
2019-03-25T18:31:28.533Z,97837.45
2019-03-25T18:33:30.134Z,97843.39
2019-03-25T18:35:31.720Z,97853.23
2019-03-25T18:37:33.972Z,97853.30
2019-03-25T18:39:35.652Z,97864.88
2019-03-25T18:41:37.363Z,97875.55
2019-03-25T18:43:39.225Z,97879.89
2019-03-25T18:45:40.872Z,97883.05
2019-03-25T18:47:42.511Z,97885.38
2019-03-25T18:49:44.100Z,97893.41
2019-03-25T18:51:45.755Z,97901.04
2019-03-25T18:53:47.417Z,97899.81
2019-03-25T18:55:49.012Z,97909.69
2019-03-25T18:57:50.637Z,97880.22
2019-03-25T18:59:52.237Z,97908.27
2019-03-25T19:01:54.782Z,97913.27
2019-03-25T19:03:55.670Z,97918.09
2019-03-25T19:05:57.273Z,97925.43
2019-03-25T19:07:58.856Z,97933.98
2019-03-25T19:10:00.491Z,97939.62
2019-03-25T19:12:02.080Z,97944.95
2019-03-25T19:14:04.954Z,97942.69
2019-03-25T19:16:06.723Z,97943.45
2019-03-25T19:18:08.471Z,97943.43
2019-03-25T19:20:10.164Z,97932.87
2019-03-25T19:22:12.955Z,97952.99
2019-03-25T19:24:13.528Z,97972.77
2019-03-25T19:26:15.172Z,97956.34
2019-03-25T19:28:16.791Z,97949.91
2019-03-25T19:30:19.211Z,97960.69
2019-03-25T19:32:20.840Z,97964.82
2019-03-25T19:34:22.426Z,97967.05
2019-03-25T19:36:24.051Z,97972.96
2019-03-25T19:38:25.680Z,97973.38
2019-03-25T19:40:27.322Z,97980.68
2019-03-25T19:42:28.984Z,97983.44
2019-03-25T19:44:30.749Z,97977.14
2019-03-25T19:46:32.453Z,97990.88
2019-03-25T19:48:34.055Z,97995.52
2019-03-25T19:50:35.684Z,97998.61
2019-03-25T19:52:37.311Z,98001.68
2019-03-25T19:54:38.978Z,98001.93
2019-03-25T19:56:40.645Z,98003.48
2019-03-25T19:58:42.288Z,98003.70
2019-03-25T20:00:43.869Z,98009.72
2019-03-25T20:02:45.543Z,97996.04
2019-03-25T20:04:47.151Z,98017.60
2019-03-25T20:06:48.753Z,98013.75
2019-03-25T20:08:50.400Z,98019.09
2019-03-25T20:10:52.024Z,98006.22
2019-03-25T20:12:53.682Z,98032.31
2019-03-25T20:14:55.300Z,98031.47
2019-03-25T20:16:56.913Z,98040.77
2019-03-25T20:18:58.622Z,98034.66
2019-03-25T20:21:00.255Z,98034.50
2019-03-25T20:23:01.965Z,98045.48
2019-03-25T20:25:03.620Z,98044.40
2019-03-25T20:27:05.228Z,98051.03
2019-03-25T20:29:06.835Z,98056.09
2019-03-25T20:31:08.467Z,98049.01
2019-03-25T20:33:10.118Z,98055.67
2019-03-25T20:35:11.851Z,98059.81
2019-03-25T20:37:13.491Z,98066.09
2019-03-25T20:39:15.076Z,98068.88
2019-03-25T20:41:16.687Z,98066.94
2019-03-25T20:43:18.353Z,98066.38
2019-03-25T20:45:19.951Z,98071.56
2019-03-25T20:47:21.692Z,98071.75
2019-03-25T20:49:23.665Z,98078.23
2019-03-25T20:51:25.291Z,98068.16
2019-03-25T20:53:27.673Z,98071.92
2019-03-25T20:55:29.419Z,98070.19
2019-03-25T20:57:31.133Z,98080.99
2019-03-25T20:59:32.731Z,98077.06
2019-03-25T21:01:34.304Z,98074.03
2019-03-25T21:03:35.906Z,98075.91
2019-03-25T21:05:37.545Z,98079.44
2019-03-25T21:07:39.244Z,98080.72
2019-03-25T21:09:40.903Z,98079.86
2019-03-25T21:11:42.498Z,98077.66
2019-03-25T21:13:44.158Z,98088.99
2019-03-25T21:15:45.789Z,98089.47
2019-03-25T21:17:47.487Z,98090.80
2019-03-25T21:19:49.113Z,98083.09
2019-03-25T21:21:50.708Z,98084.28
2019-03-25T21:23:52.413Z,98091.59
2019-03-25T21:25:54.016Z,98083.14
2019-03-25T21:27:55.606Z,98102.24
2019-03-25T21:29:57.339Z,98104.08
2019-03-25T21:31:59.465Z,98110.73
2019-03-25T21:34:01.099Z,98110.75
2019-03-25T21:36:02.781Z,98107.55
2019-03-25T21:38:04.404Z,98112.90
2019-03-25T21:40:06.011Z,98113.84
2019-03-25T21:42:07.634Z,98121.06
2019-03-25T21:44:09.243Z,98108.94
2019-03-25T21:46:10.864Z,98117.11
2019-03-25T21:48:12.601Z,98116.89
2019-03-25T21:50:14.252Z,98108.61
2019-03-25T21:52:15.870Z,98106.55
2019-03-25T21:54:17.583Z,98107.26
2019-03-25T21:56:19.291Z,98120.40
2019-03-25T21:58:20.904Z,98117.30
2019-03-25T22:00:22.528Z,98119.59
2019-03-25T22:02:24.135Z,98114.57
2019-03-25T22:04:25.736Z,98124.61
2019-03-25T22:06:27.386Z,98122.45
2019-03-25T22:08:29.040Z,98133.70
2019-03-25T22:10:30.712Z,98119.37
2019-03-25T22:12:32.311Z,98124.39
2019-03-25T22:14:33.895Z,98131.66
2019-03-25T22:16:35.510Z,98136.42
2019-03-25T22:18:37.092Z,98136.46
2019-03-25T22:20:38.727Z,98137.52
2019-03-25T22:22:40.316Z,98140.23
2019-03-25T22:24:41.901Z,98137.77
2019-03-25T22:26:43.519Z,98132.43
2019-03-25T22:28:45.128Z,98141.87
2019-03-25T22:30:46.780Z,98138.90
2019-03-25T22:32:48.382Z,98150.84
2019-03-25T22:34:49.995Z,98146.23
2019-03-25T22:36:51.628Z,98143.74
2019-03-25T22:38:53.231Z,98149.75
2019-03-25T22:40:54.862Z,98149.34
2019-03-25T22:42:56.507Z,98157.08
2019-03-25T22:44:58.203Z,98136.53
2019-03-25T22:46:59.798Z,98169.52
2019-03-25T22:49:01.412Z,98163.50
2019-03-25T22:51:02.993Z,98165.70
2019-03-25T22:53:04.583Z,98172.53
2019-03-25T22:55:06.180Z,98178.15
2019-03-25T22:57:07.896Z,98180.77
2019-03-25T22:59:09.490Z,98184.63
2019-03-25T23:01:11.104Z,98188.94
2019-03-25T23:03:12.728Z,98191.94
2019-03-25T23:05:14.342Z,98190.70
2019-03-25T23:07:15.955Z,98195.00
2019-03-25T23:09:17.558Z,98196.41
2019-03-25T23:11:19.191Z,98196.91
2019-03-25T23:13:20.779Z,98194.84
2019-03-25T23:15:22.364Z,98205.64
2019-03-25T23:17:24.008Z,98210.87
2019-03-25T23:19:25.621Z,98211.81
2019-03-25T23:21:27.199Z,98218.19
2019-03-25T23:23:28.819Z,98223.75
2019-03-25T23:25:30.406Z,98225.93
2019-03-25T23:27:31.982Z,98225.14
2019-03-25T23:29:33.562Z,98230.33
2019-03-25T23:31:35.197Z,98229.54
2019-03-25T23:33:36.806Z,98224.91
2019-03-25T23:35:38.415Z,98227.95
2019-03-25T23:37:40.019Z,98220.72
2019-03-25T23:39:41.627Z,98229.73
2019-03-25T23:41:43.276Z,98234.05
2019-03-25T23:43:44.907Z,98238.76
2019-03-25T23:45:46.528Z,98228.64
2019-03-25T23:47:48.112Z,98233.74